Time;durP1;ratioP1;P1;durP2;ratioP2;P2;SDS_P1;SDS_P2;PMS_P1;PMS_P2;Temp;Humidity;BMP_temperature;BMP_pressure;BME280_temperature;BME280_humidity;BME280_pressure;Samples;Min_cycle;Max_cycle;Signal;HPM_P1;HPM_P2
2023/12/26 00:02:07;;;;;;;;;1.00;0.75;;;;;;;;5097078;27;45433;-73
2023/12/26 00:04:32;;;;;;;;;0.50;0.50;;;;;;;;5097509;27;45207;-73
2023/12/26 00:06:58;;;;;;;;;3.00;2.75;;;;;;;;5097430;27;45239;-75
2023/12/26 00:09:23;;;;;;;;;2.00;2.00;;;;;;;;5096984;27;45314;-74
2023/12/26 00:11:49;;;;;;;;;0.75;0.75;;;;;;;;5096364;27;45327;-80
2023/12/26 00:14:18;;;;;;;;;2.25;2.00;;;;;;;;5096994;27;45904;-82
2023/12/26 00:16:43;;;;;;;;;1.75;1.75;;;;;;;;5095489;27;45159;-83
2023/12/26 00:19:08;;;;;;;;;5.00;4.50;;;;;;;;5096612;27;46129;-85
2023/12/26 00:21:34;;;;;;;;;6.75;6.75;;;;;;;;5096597;27;45342;-74
2023/12/26 00:24:00;;;;;;;;;13.25;11.25;;;;;;;;5096876;27;45291;-73
2023/12/26 00:26:25;;;;;;;;;22.75;19.00;;;;;;;;5094327;27;45400;-84
2023/12/26 00:28:50;;;;;;;;;3.00;2.00;;;;;;;;5076599;27;45531;-85
2023/12/26 00:31:16;;;;;;;;;3.00;2.00;;;;;;;;5079966;27;45518;-74
2023/12/26 00:33:41;;;;;;;;;2.00;2.00;;;;;;;;5080454;27;45365;-74
2023/12/26 00:36:11;;;;;;;;;1.75;1.00;;;;;;;;5080737;27;45478;-73
2023/12/26 00:38:37;;;;;;;;;0.00;0.00;;;;;;;;5080289;28;46306;-73
2023/12/26 00:41:02;;;;;;;;;2.50;2.00;;;;;;;;5079877;27;45515;-74
2023/12/26 00:43:28;;;;;;;;;1.00;1.00;;;;;;;;5080003;27;45227;-73
2023/12/26 00:45:53;;;;;;;;;2.00;2.00;;;;;;;;5080176;27;45255;-74
2023/12/26 00:48:18;;;;;;;;;1.25;1.00;;;;;;;;5083767;27;46065;-84
2023/12/26 00:50:44;;;;;;;;;1.00;1.00;;;;;;;;5100377;27;45372;-74
2023/12/26 00:53:10;;;;;;;;;0.50;0.50;;;;;;;;5100311;27;45358;-83
2023/12/26 00:55:35;;;;;;;;;1.00;1.00;;;;;;;;5100474;27;45415;-83
2023/12/26 00:58:01;;;;;;;;;1.25;0.75;;;;;;;;5099218;27;45693;-72
2023/12/26 01:00:26;;;;;;;;;1.00;1.00;;;;;;;;5099387;27;45430;-73
2023/12/26 01:02:52;;;;;;;;;1.50;1.00;;;;;;;;5099513;27;45574;-72
2023/12/26 01:05:17;;;;;;;;;1.75;1.00;;;;;;;;5099269;27;45556;-73
2023/12/26 01:07:43;;;;;;;;;2.00;1.00;;;;;;;;5099280;27;45974;-72
2023/12/26 01:10:08;;;;;;;;;1.00;0.50;;;;;;;;5099184;27;45558;-73
2023/12/26 01:12:34;;;;;;;;;0.75;0.00;;;;;;;;5099225;27;45496;-73
2023/12/26 01:14:59;;;;;;;;;0.75;0.75;;;;;;;;5098083;27;45642;-72
2023/12/26 01:17:24;;;;;;;;;1.75;1.25;;;;;;;;5098839;27;46068;-73
2023/12/26 01:19:50;;;;;;;;;1.00;1.00;;;;;;;;5098926;27;45463;-73
2023/12/26 01:22:16;;;;;;;;;1.00;1.00;;;;;;;;5098846;27;45390;-73
2023/12/26 01:24:41;;;;;;;;;1.25;0.75;;;;;;;;5099318;27;45341;-73
2023/12/26 01:27:07;;;;;;;;;2.00;2.00;;;;;;;;5098813;27;45373;-73
2023/12/26 01:29:32;;;;;;;;;4.50;3.50;;;;;;;;5098760;27;45155;-72
2023/12/26 01:31:57;;;;;;;;;2.75;2.00;;;;;;;;5098866;27;45596;-73
2023/12/26 01:34:23;;;;;;;;;2.00;2.00;;;;;;;;5099097;27;45381;-72
2023/12/26 01:36:48;;;;;;;;;3.00;3.00;;;;;;;;5098677;27;45494;-73
2023/12/26 01:39:14;;;;;;;;;2.00;2.00;;;;;;;;5099062;27;45299;-72
2023/12/26 01:41:39;;;;;;;;;1.00;1.00;;;;;;;;5098947;27;45268;-73
2023/12/26 01:44:05;;;;;;;;;0.00;0.00;;;;;;;;5099638;27;45855;-73
2023/12/26 01:46:30;;;;;;;;;0.00;0.00;;;;;;;;5099261;27;45900;-73
2023/12/26 01:48:55;;;;;;;;;0.75;0.75;;;;;;;;5099345;27;45460;-73
2023/12/26 01:51:21;;;;;;;;;1.00;1.00;;;;;;;;5099365;27;45581;-73
2023/12/26 01:53:47;;;;;;;;;0.00;0.00;;;;;;;;5099544;27;45829;-73
2023/12/26 01:56:16;;;;;;;;;0.75;0.75;;;;;;;;5099319;27;45382;-82
2023/12/26 01:58:42;;;;;;;;;0.25;0.00;;;;;;;;5099409;27;45440;-73
2023/12/26 02:01:08;;;;;;;;;1.00;0.00;;;;;;;;5099284;27;45245;-73
2023/12/26 02:03:34;;;;;;;;;1.00;0.25;;;;;;;;5099353;27;45210;-73
2023/12/26 02:06:00;;;;;;;;;0.00;0.00;;;;;;;;5098920;27;45425;-73
2023/12/26 02:08:25;;;;;;;;;0.75;0.00;;;;;;;;5099026;27;45482;-73
2023/12/26 02:10:51;;;;;;;;;0.00;0.00;;;;;;;;5099087;27;45731;-73
2023/12/26 02:13:16;;;;;;;;;0.00;0.00;;;;;;;;5099474;27;45491;-73
2023/12/26 02:15:42;;;;;;;;;1.00;0.00;;;;;;;;5098745;27;46183;-73
2023/12/26 02:18:08;;;;;;;;;0.00;0.00;;;;;;;;5098938;27;45423;-73
2023/12/26 02:20:33;;;;;;;;;0.00;0.00;;;;;;;;5099013;27;45534;-75
2023/12/26 02:22:59;;;;;;;;;1.00;1.00;;;;;;;;5099003;27;45199;-73
2023/12/26 02:25:24;;;;;;;;;1.00;1.00;;;;;;;;5098524;27;46102;-73
2023/12/26 02:27:50;;;;;;;;;0.25;0.25;;;;;;;;5098764;27;45296;-72
2023/12/26 02:30:15;;;;;;;;;1.00;1.00;;;;;;;;5099159;27;45276;-73
2023/12/26 02:32:42;;;;;;;;;1.00;0.50;;;;;;;;5098956;27;45516;-73
2023/12/26 02:35:08;;;;;;;;;3.75;1.00;;;;;;;;5098373;27;45992;-83
2023/12/26 02:37:33;;;;;;;;;1.00;1.00;;;;;;;;5098584;27;45230;-83
2023/12/26 02:39:59;;;;;;;;;1.00;1.00;;;;;;;;5098718;27;45324;-84
2023/12/26 02:42:33;;;;;;;;;0.75;0.75;;;;;;;;5098615;27;45328;-84
2023/12/26 02:44:59;;;;;;;;;0.00;0.00;;;;;;;;5098135;27;45502;-84
2023/12/26 02:47:24;;;;;;;;;0.50;0.00;;;;;;;;5098259;27;45693;-84
2023/12/26 02:49:50;;;;;;;;;0.00;0.00;;;;;;;;5098584;27;45411;-73
2023/12/26 02:52:16;;;;;;;;;1.00;1.00;;;;;;;;5098060;27;45299;-73
2023/12/26 02:54:41;;;;;;;;;1.25;1.00;;;;;;;;5097723;27;45365;-73
2023/12/26 02:57:07;;;;;;;;;1.00;1.00;;;;;;;;5098078;27;45467;-73
2023/12/26 02:59:32;;;;;;;;;1.00;1.00;;;;;;;;5098373;27;45640;-73
2023/12/26 03:01:58;;;;;;;;;0.00;0.00;;;;;;;;5098513;27;45497;-73
2023/12/26 03:04:23;;;;;;;;;1.00;1.00;;;;;;;;5096743;27;47041;-72
2023/12/26 03:06:49;;;;;;;;;1.00;1.00;;;;;;;;5097117;27;45192;-72
2023/12/26 03:09:14;;;;;;;;;0.00;0.00;;;;;;;;5098549;27;45630;-72
2023/12/26 03:11:39;;;;;;;;;0.75;0.00;;;;;;;;5098633;27;45766;-72
2023/12/26 03:14:06;;;;;;;;;0.50;0.50;;;;;;;;5098015;27;45232;-72
2023/12/26 03:16:32;;;;;;;;;0.25;0.25;;;;;;;;5097997;27;45445;-72
2023/12/26 03:18:57;;;;;;;;;0.00;0.00;;;;;;;;5098083;27;45223;-72
2023/12/26 03:21:22;;;;;;;;;0.00;0.00;;;;;;;;5098300;27;45351;-72
2023/12/26 03:23:50;;;;;;;;;1.00;1.00;;;;;;;;5098086;27;46044;-72
2023/12/26 03:26:15;;;;;;;;;0.75;0.25;;;;;;;;5097973;27;45433;-72
2023/12/26 03:28:40;;;;;;;;;0.75;0.25;;;;;;;;5097968;27;45272;-72
2023/12/26 03:31:06;;;;;;;;;0.75;0.75;;;;;;;;5098056;27;45352;-72
2023/12/26 03:33:32;;;;;;;;;2.00;2.00;;;;;;;;5097508;27;46155;-72
2023/12/26 03:35:58;;;;;;;;;1.00;1.00;;;;;;;;5097727;27;45259;-72
2023/12/26 03:38:23;;;;;;;;;0.00;0.00;;;;;;;;5097914;27;45275;-74
2023/12/26 03:40:48;;;;;;;;;0.75;0.75;;;;;;;;5098100;27;45543;-74
2023/12/26 03:43:16;;;;;;;;;0.00;0.00;;;;;;;;5097387;27;46017;-74
2023/12/26 03:45:41;;;;;;;;;0.00;0.00;;;;;;;;5096293;27;45266;-74
2023/12/26 03:48:07;;;;;;;;;1.00;0.75;;;;;;;;5096088;27;45774;-74
2023/12/26 03:50:32;;;;;;;;;0.00;0.00;;;;;;;;5097732;27;45439;-74
2023/12/26 03:52:58;;;;;;;;;0.00;0.00;;;;;;;;5097370;27;46040;-74
2023/12/26 03:55:23;;;;;;;;;0.00;0.00;;;;;;;;5097440;27;45380;-74
2023/12/26 03:57:49;;;;;;;;;1.00;0.00;;;;;;;;5097881;27;45696;-73
2023/12/26 04:00:15;;;;;;;;;0.75;0.00;;;;;;;;5097597;27;45504;-73
2023/12/26 04:02:40;;;;;;;;;0.00;0.00;;;;;;;;5097280;27;46134;-74
2023/12/26 04:05:06;;;;;;;;;0.00;0.00;;;;;;;;5099439;27;45437;-74
2023/12/26 04:07:32;;;;;;;;;0.00;0.00;;;;;;;;5101145;27;45382;-74
2023/12/26 04:09:58;;;;;;;;;0.75;0.00;;;;;;;;5101106;27;45385;-74
2023/12/26 04:12:23;;;;;;;;;1.00;0.00;;;;;;;;5100559;27;46285;-73
2023/12/26 04:14:49;;;;;;;;;0.50;0.50;;;;;;;;5100804;27;45212;-85
2023/12/26 04:17:14;;;;;;;;;0.25;0.25;;;;;;;;5100727;27;45210;-85
2023/12/26 04:19:40;;;;;;;;;0.75;0.75;;;;;;;;5101138;27;45480;-73
2023/12/26 04:22:05;;;;;;;;;1.00;1.00;;;;;;;;5100391;27;45588;-85
2023/12/26 04:24:30;;;;;;;;;1.75;1.75;;;;;;;;5100251;27;45583;-85
2023/12/26 04:26:56;;;;;;;;;0.00;0.00;;;;;;;;5100637;27;45428;-85
2023/12/26 04:29:22;;;;;;;;;1.00;0.00;;;;;;;;5101113;27;45514;-75
2023/12/26 04:31:47;;;;;;;;;0.00;0.00;;;;;;;;5100321;27;45507;-85
2023/12/26 04:34:12;;;;;;;;;0.00;0.00;;;;;;;;5100404;27;45479;-83
2023/12/26 04:36:38;;;;;;;;;0.00;0.00;;;;;;;;5100394;27;45479;-84
2023/12/26 04:39:04;;;;;;;;;0.00;0.00;;;;;;;;5100408;27;45478;-73
2023/12/26 04:41:30;;;;;;;;;0.00;0.00;;;;;;;;5100166;27;45777;-84
2023/12/26 04:43:56;;;;;;;;;1.00;0.75;;;;;;;;5100090;27;45368;-74
2023/12/26 04:46:21;;;;;;;;;1.00;0.00;;;;;;;;5100482;27;45349;-81
2023/12/26 04:48:47;;;;;;;;;0.00;0.00;;;;;;;;5100399;27;45378;-80
2023/12/26 04:51:16;;;;;;;;;0.00;0.00;;;;;;;;5100238;27;45411;-77
2023/12/26 04:53:41;;;;;;;;;0.25;0.25;;;;;;;;5100094;27;45560;-85
2023/12/26 04:56:07;;;;;;;;;0.25;0.25;;;;;;;;5100230;27;45332;-74
2023/12/26 04:58:32;;;;;;;;;1.75;1.00;;;;;;;;5100376;27;45444;-78
2023/12/26 05:00:59;;;;;;;;;3.00;1.75;;;;;;;;5099656;27;45764;-84
2023/12/26 05:03:24;;;;;;;;;1.00;0.50;;;;;;;;5100295;27;45467;-75
2023/12/26 05:05:50;;;;;;;;;1.00;1.00;;;;;;;;5099946;27;45242;-74
2023/12/26 05:08:16;;;;;;;;;0.00;0.00;;;;;;;;5100245;27;45468;-74
2023/12/26 05:10:41;;;;;;;;;1.00;0.25;;;;;;;;5099633;27;45890;-84
2023/12/26 05:13:07;;;;;;;;;0.00;0.00;;;;;;;;5099923;27;46235;-74
2023/12/26 05:15:32;;;;;;;;;0.00;0.00;;;;;;;;5098774;27;45421;-74
2023/12/26 05:17:58;;;;;;;;;0.00;0.00;;;;;;;;5099941;27;45425;-73
2023/12/26 05:20:23;;;;;;;;;0.00;0.00;;;;;;;;5099911;27;45495;-73
2023/12/26 05:22:48;;;;;;;;;1.00;0.00;;;;;;;;5099696;27;45475;-73
2023/12/26 05:25:14;;;;;;;;;0.00;0.00;;;;;;;;5099687;27;45454;-73
2023/12/26 05:27:39;;;;;;;;;0.00;0.00;;;;;;;;5100000;27;45341;-73
2023/12/26 05:30:05;;;;;;;;;0.50;0.00;;;;;;;;5098542;27;46122;-74
2023/12/26 05:32:30;;;;;;;;;0.00;0.00;;;;;;;;5098879;27;45489;-78
2023/12/26 05:34:56;;;;;;;;;1.00;0.00;;;;;;;;5099238;27;45557;-76
2023/12/26 05:37:22;;;;;;;;;0.00;0.00;;;;;;;;5099398;27;45490;-85
2023/12/26 05:39:47;;;;;;;;;0.00;0.00;;;;;;;;5099034;27;45495;-73
2023/12/26 05:42:13;;;;;;;;;0.00;0.00;;;;;;;;5099328;27;45491;-73
2023/12/26 05:44:39;;;;;;;;;0.00;0.00;;;;;;;;5094759;27;45168;-82
2023/12/26 05:47:05;;;;;;;;;0.00;0.00;;;;;;;;5078644;28;45627;-74
2023/12/26 05:49:31;;;;;;;;;1.50;1.00;;;;;;;;5078346;27;46230;-73
2023/12/26 05:51:56;;;;;;;;;1.75;1.75;;;;;;;;5078851;27;45530;-73
2023/12/26 05:54:22;;;;;;;;;0.50;0.50;;;;;;;;5078786;27;45472;-73
2023/12/26 05:56:48;;;;;;;;;0.00;0.00;;;;;;;;5078842;27;45563;-74
2023/12/26 05:59:13;;;;;;;;;1.00;1.00;;;;;;;;5078653;27;46021;-74
2023/12/26 06:01:43;;;;;;;;;0.00;0.00;;;;;;;;5078937;27;45251;-73
2023/12/26 06:04:08;;;;;;;;;0.00;0.00;;;;;;;;5078938;27;45324;-74
2023/12/26 06:06:34;;;;;;;;;1.00;1.00;;;;;;;;5078927;27;45271;-74
2023/12/26 06:08:59;;;;;;;;;0.00;0.00;;;;;;;;5078658;27;45404;-74
2023/12/26 06:11:25;;;;;;;;;1.00;1.00;;;;;;;;5079027;28;45416;-84
2023/12/26 06:13:50;;;;;;;;;0.75;0.25;;;;;;;;5078806;27;45326;-74
2023/12/26 06:16:16;;;;;;;;;1.00;1.00;;;;;;;;5078854;27;45287;-74
2023/12/26 06:18:41;;;;;;;;;1.00;1.00;;;;;;;;5078279;27;45408;-74
2023/12/26 06:21:07;;;;;;;;;0.00;0.00;;;;;;;;5078338;27;45339;-82
2023/12/26 06:23:32;;;;;;;;;0.00;0.00;;;;;;;;5078435;27;45286;-74
2023/12/26 06:25:57;;;;;;;;;0.00;0.00;;;;;;;;5078686;27;45340;-74
2023/12/26 06:28:23;;;;;;;;;1.00;1.00;;;;;;;;5077617;27;45534;-82
2023/12/26 06:30:49;;;;;;;;;0.00;0.00;;;;;;;;5077789;27;45440;-74
2023/12/26 06:33:14;;;;;;;;;0.00;0.00;;;;;;;;5077956;27;45581;-74
2023/12/26 06:35:40;;;;;;;;;1.00;1.00;;;;;;;;5078204;28;45274;-74
2023/12/26 06:38:12;;;;;;;;;1.00;1.00;;;;;;;;5077791;27;45276;-82
2023/12/26 06:40:38;;;;;;;;;0.00;0.00;;;;;;;;5077870;27;45428;-78
2023/12/26 06:43:03;;;;;;;;;0.00;0.00;;;;;;;;5077603;27;45352;-75
2023/12/26 06:45:29;;;;;;;;;1.00;1.00;;;;;;;;5095021;27;45458;-82
2023/12/26 06:47:55;;;;;;;;;0.00;0.00;;;;;;;;5097399;27;45551;-78
2023/12/26 06:50:21;;;;;;;;;12.00;10.00;;;;;;;;5097230;27;45456;-77
2023/12/26 06:52:46;;;;;;;;;2.00;2.00;;;;;;;;5097493;27;45480;-77
2023/12/26 06:55:11;;;;;;;;;1.25;1.00;;;;;;;;5097361;27;45538;-75
2023/12/26 06:57:37;;;;;;;;;0.00;0.00;;;;;;;;5097303;27;46107;-82
2023/12/26 07:00:02;;;;;;;;;2.00;1.50;;;;;;;;5097215;27;45476;-81
2023/12/26 07:02:28;;;;;;;;;16.00;13.75;;;;;;;;5097395;27;45438;-82
2023/12/26 07:04:54;;;;;;;;;3.50;1.50;;;;;;;;5097223;27;45593;-80
2023/12/26 07:07:20;;;;;;;;;6.00;5.75;;;;;;;;5095506;27;46213;-81
2023/12/26 07:09:45;;;;;;;;;15.50;11.50;;;;;;;;5097205;27;45400;-81
2023/12/26 07:12:10;;;;;;;;;10.50;9.00;;;;;;;;5096870;27;45334;-72
2023/12/26 07:14:36;;;;;;;;;20.00;14.75;;;;;;;;5097246;27;45348;-81
2023/12/26 07:17:01;;;;;;;;;9.00;8.00;;;;;;;;5097063;27;45963;-74
2023/12/26 07:19:27;;;;;;;;;7.00;4.50;;;;;;;;5096681;27;45581;-72
2023/12/26 07:21:52;;;;;;;;;21.00;21.00;;;;;;;;5094448;27;45590;-72
2023/12/26 07:24:18;;;;;;;;;18.25;16.75;;;;;;;;5097243;27;45339;-72
2023/12/26 07:26:44;;;;;;;;;10.25;9.75;;;;;;;;5096811;27;46161;-72
2023/12/26 07:29:09;;;;;;;;;2.00;2.00;;;;;;;;5096940;27;45305;-77
2023/12/26 07:31:35;;;;;;;;;4.00;2.50;;;;;;;;5097037;27;45362;-83
2023/12/26 07:34:02;;;;;;;;;9.25;8.25;;;;;;;;5097423;27;45355;-74
2023/12/26 07:36:28;;;;;;;;;9.25;9.25;;;;;;;;5096820;27;45341;-82
2023/12/26 07:38:53;;;;;;;;;8.00;8.00;;;;;;;;5096945;27;45215;-79
2023/12/26 07:41:19;;;;;;;;;6.75;6.75;;;;;;;;5100493;27;45691;-83
2023/12/26 07:43:44;;;;;;;;;16.50;14.00;;;;;;;;5100518;27;45465;-82
2023/12/26 07:46:10;;;;;;;;;9.75;9.00;;;;;;;;5100010;27;46160;-73
2023/12/26 07:48:35;;;;;;;;;9.25;9.25;;;;;;;;5100343;27;45369;-80
2023/12/26 07:51:01;;;;;;;;;9.50;8.75;;;;;;;;5100588;27;45703;-84
2023/12/26 07:53:27;;;;;;;;;29.00;29.00;;;;;;;;5100181;27;45342;-84
2023/12/26 07:55:52;;;;;;;;;9.50;7.75;;;;;;;;5099674;27;45399;-77
2023/12/26 07:58:17;;;;;;;;;18.00;17.50;;;;;;;;5100008;27;45473;-78
2023/12/26 08:00:44;;;;;;;;;26.00;22.25;;;;;;;;5099925;27;45494;-84
2023/12/26 08:03:15;;;;;;;;;40.25;39.00;;;;;;;;5100157;27;45440;-82
2023/12/26 08:05:40;;;;;;;;;26.00;24.75;;;;;;;;5099503;27;45407;-73
2023/12/26 08:08:06;;;;;;;;;17.50;16.00;;;;;;;;5099871;27;45352;-79
2023/12/26 08:10:31;;;;;;;;;14.00;13.00;;;;;;;;5100075;27;45475;-73
2023/12/26 08:12:57;;;;;;;;;10.25;7.25;;;;;;;;5100150;27;45409;-83
2023/12/26 08:15:22;;;;;;;;;46.50;41.75;;;;;;;;5099919;27;45912;-75
2023/12/26 08:17:47;;;;;;;;;37.75;35.50;;;;;;;;5099804;27;45483;-81
2023/12/26 08:20:13;;;;;;;;;42.75;40.25;;;;;;;;5100039;27;45360;-83
2023/12/26 08:22:38;;;;;;;;;35.00;34.75;;;;;;;;5099923;27;45501;-84
2023/12/26 08:25:04;;;;;;;;;33.00;31.25;;;;;;;;5099656;27;46476;-81
2023/12/26 08:27:30;;;;;;;;;29.75;28.00;;;;;;;;5099931;27;46120;-73
2023/12/26 08:29:55;;;;;;;;;19.75;17.00;;;;;;;;5099924;27;45505;-82
2023/12/26 08:32:21;;;;;;;;;24.50;20.00;;;;;;;;5100120;27;45291;-84
2023/12/26 08:34:47;;;;;;;;;15.00;13.75;;;;;;;;5099581;27;45532;-84
2023/12/26 08:37:12;;;;;;;;;15.75;14.00;;;;;;;;5099408;27;45268;-83
2023/12/26 08:39:38;;;;;;;;;15.50;14.00;;;;;;;;5099767;27;45266;-72
2023/12/26 08:42:37;;;;;;;;;46.00;37.75;;;;;;;;5100149;27;45465;-72
2023/12/26 08:45:03;;;;;;;;;50.25;40.25;;;;;;;;5077843;28;46918;-73
2023/12/26 08:47:28;;;;;;;;;50.75;42.50;;;;;;;;5079606;28;45283;-72
2023/12/26 08:49:53;;;;;;;;;44.00;38.75;;;;;;;;5079454;28;45940;-73
2023/12/26 08:52:21;;;;;;;;;46.25;41.75;;;;;;;;5090036;27;45591;-72
2023/12/26 08:54:47;;;;;;;;;40.00;35.00;;;;;;;;5096280;27;46032;-72
2023/12/26 08:57:12;;;;;;;;;34.00;29.75;;;;;;;;5099100;27;45518;-72
2023/12/26 08:59:39;;;;;;;;;32.00;30.25;;;;;;;;5099406;27;45587;-84
2023/12/26 09:02:05;;;;;;;;;42.50;39.50;;;;;;;;5099518;27;45476;-72
2023/12/26 09:04:30;;;;;;;;;36.00;32.00;;;;;;;;5098773;27;45502;-83
2023/12/26 09:06:56;;;;;;;;;25.00;19.75;;;;;;;;5099157;27;45465;-72
2023/12/26 09:09:21;;;;;;;;;32.00;24.25;;;;;;;;5099379;27;45364;-80
2023/12/26 09:11:47;;;;;;;;;42.00;37.00;;;;;;;;5099685;27;45520;-82
2023/12/26 09:14:13;;;;;;;;;47.50;39.00;;;;;;;;5099572;27;46036;-88
2023/12/26 09:16:39;;;;;;;;;40.75;38.00;;;;;;;;5098565;27;45578;-73
2023/12/26 09:19:04;;;;;;;;;31.75;27.75;;;;;;;;5099210;27;45447;-81
2023/12/26 09:21:30;;;;;;;;;106.33;92.33;;;;;;;;5098945;27;45507;-73
2023/12/26 09:23:55;;;;;;;;;50.75;44.00;;;;;;;;5099115;27;45912;-72
2023/12/26 09:26:21;;;;;;;;;47.00;40.25;;;;;;;;5098758;27;45369;-72
2023/12/26 09:28:47;;;;;;;;;38.25;36.50;;;;;;;;5096024;27;45255;-72
2023/12/26 09:31:12;;;;;;;;;30.00;29.00;;;;;;;;5099267;27;45348;-72
2023/12/26 09:33:37;;;;;;;;;22.50;21.25;;;;;;;;5098732;27;46194;-79
2023/12/26 09:36:03;;;;;;;;;34.25;33.75;;;;;;;;5098464;27;45198;-78
2023/12/26 09:38:28;;;;;;;;;28.00;25.50;;;;;;;;5098732;27;45338;-71
2023/12/26 09:40:54;;;;;;;;;13.50;11.50;;;;;;;;5099058;27;45464;-71
2023/12/26 09:43:19;;;;;;;;;13.25;12.75;;;;;;;;5098536;27;45855;-79
2023/12/26 09:45:45;;;;;;;;;12.50;9.50;;;;;;;;5098348;27;45318;-71
2023/12/26 09:48:11;;;;;;;;;11.00;11.00;;;;;;;;5098610;27;45416;-72
2023/12/26 09:50:36;;;;;;;;;11.00;11.00;;;;;;;;5099385;27;45282;-79
2023/12/26 09:53:06;;;;;;;;;33.25;30.50;;;;;;;;5097978;27;46006;-82
2023/12/26 09:55:32;;;;;;;;;33.25;29.25;;;;;;;;5098130;27;45623;-71
2023/12/26 09:57:58;;;;;;;;;15.75;15.75;;;;;;;;5098303;27;45384;-71
2023/12/26 10:00:24;;;;;;;;;48.25;41.00;;;;;;;;5098596;27;45208;-71
2023/12/26 10:02:50;;;;;;;;;34.50;32.75;;;;;;;;5098674;27;45590;-93
2023/12/26 10:05:16;;;;;;;;;30.75;29.75;;;;;;;;5098074;27;45428;-72
2023/12/26 10:07:42;;;;;;;;;21.50;21.00;;;;;;;;5098344;27;45493;-71
2023/12/26 10:10:11;;;;;;;;;22.50;21.00;;;;;;;;5098551;27;45446;-87
2023/12/26 10:12:36;;;;;;;;;16.00;13.50;;;;;;;;5098849;27;45968;-71
2023/12/26 10:15:02;;;;;;;;;15.25;14.25;;;;;;;;5097867;27;45479;-74
2023/12/26 10:17:28;;;;;;;;;29.75;26.50;;;;;;;;5097764;27;45499;-76
2023/12/26 10:19:58;;;;;;;;;13.00;13.00;;;;;;;;5097989;27;45388;-71
2023/12/26 10:22:29;;;;;;;;;9.25;8.50;;;;;;;;5096948;27;46093;-71
2023/12/26 10:24:55;;;;;;;;;9.00;8.75;;;;;;;;5097102;27;45586;-79
2023/12/26 10:27:21;;;;;;;;;8.75;8.50;;;;;;;;5097455;27;45527;-72
2023/12/26 10:29:56;;;;;;;;;17.50;16.00;;;;;;;;5097791;27;45536;-71
2023/12/26 10:32:25;;;;;;;;;12.00;11.00;;;;;;;;5097459;27;46333;-72
2023/12/26 10:34:54;;;;;;;;;8.00;6.50;;;;;;;;5097281;27;45610;-71
2023/12/26 10:37:21;;;;;;;;;13.00;11.25;;;;;;;;5095474;27;45456;-74
2023/12/26 10:39:46;;;;;;;;;8.67;7.67;;;;;;;;5097413;27;45488;-72
2023/12/26 10:42:13;;;;;;;;;16.25;15.50;;;;;;;;5097279;27;45581;-72
2023/12/26 10:45:00;;;;;;;;;28.75;26.50;;;;;;;;5097233;27;45405;-77
2023/12/26 10:47:27;;;;;;;;;30.75;27.00;;;;;;;;5095457;27;45295;-71
2023/12/26 10:49:56;;;;;;;;;19.75;18.50;;;;;;;;5097676;27;45840;-71
2023/12/26 10:52:22;;;;;;;;;8.00;8.00;;;;;;;;5094632;27;46264;-76
2023/12/26 10:54:49;;;;;;;;;14.00;11.50;;;;;;;;5097394;27;45570;-74
2023/12/26 10:57:15;;;;;;;;;15.25;14.00;;;;;;;;5097194;27;45509;-71
2023/12/26 13:51:33;;;;;;;;;8.00;7.33;;;;;;;;5078186;27;45454;-71
2023/12/26 13:53:58;;;;;;;;;13.75;10.00;;;;;;;;5077902;28;45424;-70
2023/12/26 13:56:24;;;;;;;;;2.33;2.00;;;;;;;;5078411;28;45251;-70
2023/12/26 13:58:49;;;;;;;;;4.67;4.67;;;;;;;;5079039;28;45487;-70
2023/12/26 14:01:16;;;;;;;;;3.00;3.00;;;;;;;;5079046;28;45448;-70
2023/12/26 14:03:49;;;;;;;;;22.50;22.50;;;;;;;;5078123;28;45514;-70
2023/12/26 14:06:14;;;;;;;;;3.67;3.00;;;;;;;;5078364;28;45343;-73
2023/12/26 14:08:39;;;;;;;;;2.33;2.33;;;;;;;;5078626;28;45512;-70
2023/12/26 14:11:05;;;;;;;;;2.00;2.00;;;;;;;;5078732;28;45324;-70
2023/12/26 14:13:30;;;;;;;;;2.67;2.67;;;;;;;;5078322;28;46094;-70
2023/12/26 14:15:56;;;;;;;;;4.00;3.00;;;;;;;;5078175;28;45385;-70
2023/12/26 14:18:21;;;;;;;;;2.00;2.00;;;;;;;;5078565;28;45424;-73
2023/12/26 14:20:46;;;;;;;;;5.00;3.00;;;;;;;;5078247;28;45585;-71
2023/12/26 14:23:12;;;;;;;;;3.00;3.00;;;;;;;;5077551;28;45468;-70
2023/12/26 14:25:37;;;;;;;;;2.67;2.67;;;;;;;;5077746;28;45789;-70
2023/12/26 14:28:03;;;;;;;;;4.00;3.00;;;;;;;;5078095;28;45579;-70
2023/12/26 14:30:28;;;;;;;;;3.00;2.67;;;;;;;;5078264;28;45406;-70
2023/12/26 14:32:53;;;;;;;;;2.33;2.00;;;;;;;;5078257;28;45335;-70
2023/12/26 14:35:19;;;;;;;;;4.67;3.33;;;;;;;;5077860;28;45297;-69
2023/12/26 14:37:44;;;;;;;;;2.33;2.33;;;;;;;;5078074;28;45606;-70
2023/12/26 14:40:09;;;;;;;;;1.67;1.67;;;;;;;;5078129;28;45548;-70
2023/12/26 14:42:35;;;;;;;;;4.33;4.00;;;;;;;;5077557;28;45305;-71
2023/12/26 14:45:00;;;;;;;;;4.67;4.00;;;;;;;;5077475;28;45251;-70
2023/12/26 14:47:25;;;;;;;;;3.00;2.67;;;;;;;;5077934;28;45721;-70
2023/12/26 14:49:51;;;;;;;;;3.00;3.00;;;;;;;;5078314;28;45250;-70
2023/12/26 14:52:16;;;;;;;;;3.33;3.33;;;;;;;;5077645;28;45256;-70
2023/12/26 14:54:42;;;;;;;;;4.00;3.33;;;;;;;;5077531;28;45217;-70
2023/12/26 14:57:07;;;;;;;;;2.67;2.67;;;;;;;;5077508;28;45481;-70
2023/12/26 14:59:32;;;;;;;;;3.00;3.00;;;;;;;;5077840;28;45405;-71
2023/12/26 15:01:59;;;;;;;;;4.00;3.33;;;;;;;;5077319;28;45180;-70
2023/12/26 15:04:26;;;;;;;;;3.00;2.00;;;;;;;;5076320;28;45429;-70
2023/12/26 15:06:52;;;;;;;;;2.00;2.00;;;;;;;;5077681;27;45523;-71
2023/12/26 15:09:17;;;;;;;;;4.00;3.67;;;;;;;;5077611;28;45560;-70
2023/12/26 15:11:42;;;;;;;;;5.00;4.67;;;;;;;;5077399;28;46014;-70
2023/12/26 15:14:12;;;;;;;;;11.00;8.00;;;;;;;;5077244;28;45519;-70
2023/12/26 15:16:37;;;;;;;;;4.00;4.00;;;;;;;;5077401;28;45271;-70
2023/12/26 15:19:03;;;;;;;;;3.33;3.00;;;;;;;;5077518;28;45284;-71
2023/12/26 15:21:28;;;;;;;;;3.00;3.00;;;;;;;;5076998;28;45506;-71
2023/12/26 15:23:53;;;;;;;;;2.00;2.00;;;;;;;;5077345;28;45287;-71
2023/12/26 15:26:19;;;;;;;;;4.00;4.00;;;;;;;;5077136;28;45424;-71
2023/12/26 15:28:45;;;;;;;;;7.33;7.00;;;;;;;;5077435;28;45215;-71
2023/12/26 15:31:14;;;;;;;;;11.00;10.75;;;;;;;;5076919;28;46037;-70
2023/12/26 15:33:42;;;;;;;;;7.00;5.00;;;;;;;;5077162;28;45542;-71
2023/12/26 15:36:07;;;;;;;;;7.67;7.00;;;;;;;;5077058;28;45590;-72
2023/12/26 15:38:33;;;;;;;;;3.33;3.00;;;;;;;;5077212;28;45420;-71
2023/12/26 15:40:58;;;;;;;;;4.67;4.00;;;;;;;;5076898;28;46099;-71
2023/12/26 15:43:24;;;;;;;;;3.33;3.00;;;;;;;;5077403;28;45412;-71
2023/12/26 15:45:49;;;;;;;;;3.00;3.00;;;;;;;;5076559;28;45620;-72
2023/12/26 15:48:14;;;;;;;;;3.00;3.00;;;;;;;;5077006;28;45219;-71
2023/12/26 15:50:40;;;;;;;;;5.33;5.33;;;;;;;;5076765;28;45411;-71
2023/12/26 15:53:06;;;;;;;;;11.50;11.00;;;;;;;;5076474;28;45667;-71
2023/12/26 15:55:31;;;;;;;;;23.25;21.00;;;;;;;;5076946;28;46005;-71
2023/12/26 15:57:56;;;;;;;;;15.75;15.00;;;;;;;;5077382;28;45304;-71
2023/12/26 16:00:22;;;;;;;;;16.50;14.00;;;;;;;;5077512;28;46022;-71
2023/12/26 16:02:47;;;;;;;;;8.00;7.67;;;;;;;;5080088;28;45372;-72
2023/12/26 16:05:13;;;;;;;;;11.00;10.00;;;;;;;;5080296;28;45289;-71
2023/12/26 16:07:38;;;;;;;;;5.00;5.00;;;;;;;;5080719;28;45275;-71
2023/12/26 16:10:04;;;;;;;;;6.00;5.00;;;;;;;;5080340;28;45883;-71
2023/12/26 16:12:30;;;;;;;;;6.00;5.33;;;;;;;;5080608;28;45536;-71
2023/12/26 16:14:56;;;;;;;;;5.00;5.00;;;;;;;;5080969;28;45433;-70
2023/12/26 16:17:22;;;;;;;;;14.00;13.00;;;;;;;;5080343;28;45334;-71
2023/12/26 16:19:47;;;;;;;;;7.00;6.33;;;;;;;;5080040;28;46144;-71
2023/12/26 16:22:13;;;;;;;;;8.75;8.50;;;;;;;;5079860;28;45479;-71
2023/12/26 16:24:38;;;;;;;;;10.75;9.50;;;;;;;;5079380;28;45325;-72
2023/12/26 16:27:04;;;;;;;;;7.50;7.25;;;;;;;;5080329;28;45495;-71
2023/12/26 16:29:29;;;;;;;;;10.00;6.33;;;;;;;;5080219;28;45363;-71
2023/12/26 16:31:55;;;;;;;;;7.00;7.00;;;;;;;;5080099;28;45525;-70
2023/12/26 16:34:20;;;;;;;;;7.67;7.00;;;;;;;;5080113;28;45510;-71
2023/12/26 16:36:46;;;;;;;;;9.25;8.00;;;;;;;;5080032;28;45203;-71
2023/12/26 16:39:11;;;;;;;;;7.00;7.00;;;;;;;;5079953;28;46245;-71
2023/12/26 16:41:37;;;;;;;;;10.25;9.75;;;;;;;;5079741;28;45405;-71
2023/12/26 16:44:08;;;;;;;;;10.00;10.00;;;;;;;;5079944;28;45312;-71
2023/12/26 16:46:34;;;;;;;;;74.00;55.50;;;;;;;;5079576;28;45484;-71
2023/12/26 16:48:59;;;;;;;;;52.25;39.50;;;;;;;;5079831;28;45285;-71
2023/12/26 16:51:24;;;;;;;;;36.00;30.00;;;;;;;;5079591;28;45424;-71
2023/12/26 16:53:51;;;;;;;;;27.00;24.50;;;;;;;;5079684;28;45463;-71
2023/12/26 16:56:16;;;;;;;;;44.50;36.25;;;;;;;;5079830;28;45445;-71
2023/12/26 16:58:42;;;;;;;;;46.50;39.00;;;;;;;;5079378;28;45483;-71
2023/12/26 17:01:08;;;;;;;;;52.50;41.75;;;;;;;;5079596;28;45335;-72
2023/12/26 17:03:33;;;;;;;;;41.25;35.00;;;;;;;;5079652;28;45284;-71
2023/12/26 17:06:01;;;;;;;;;43.50;36.50;;;;;;;;5079934;28;45551;-71
2023/12/26 17:08:26;;;;;;;;;13.00;13.00;;;;;;;;5079486;28;46209;-71
2023/12/26 17:10:51;;;;;;;;;22.50;20.75;;;;;;;;5078959;28;45352;-71
2023/12/26 17:13:19;;;;;;;;;15.25;13.75;;;;;;;;5078399;28;45211;-71
2023/12/26 17:15:44;;;;;;;;;13.00;12.00;;;;;;;;5079690;28;45510;-71
2023/12/26 17:18:09;;;;;;;;;16.25;13.00;;;;;;;;5079379;28;46048;-71
2023/12/26 17:20:35;;;;;;;;;12.75;11.00;;;;;;;;5079011;28;45385;-71